createdAt,value
2022-10-01T00:01:34.681Z,15.27
2022-10-01T00:06:05.793Z,14.95
2022-10-01T00:10:22.395Z,15.63
2022-10-01T00:14:39.341Z,15.63
2022-10-01T00:18:55.580Z,15.40
2022-10-01T00:23:15.860Z,15.61
2022-10-01T00:27:32.061Z,15.83
2022-10-01T00:31:48.234Z,15.68
2022-10-01T00:36:05.723Z,15.63
2022-10-01T00:40:22.651Z,15.75
2022-10-01T00:44:38.789Z,15.20
2022-10-01T00:48:59.914Z,15.21
2022-10-01T00:53:16.942Z,15.36
2022-10-01T00:57:33.685Z,15.27
2022-10-01T01:01:49.843Z,15.45
2022-10-01T01:06:08.283Z,15.00
2022-10-01T01:10:30.054Z,15.38
2022-10-01T01:15:12.884Z,15.60
2022-10-01T01:19:31.653Z,15.64
2022-10-01T01:24:05.794Z,15.81
2022-10-01T01:28:31.978Z,15.57
2022-10-01T01:32:55.193Z,15.85
2022-10-01T01:37:15.958Z,15.85
2022-10-01T01:41:36.101Z,15.66
2022-10-01T01:45:55.244Z,15.71
2022-10-01T01:50:14.009Z,15.58
2022-10-01T01:54:30.602Z,15.55
2022-10-01T01:58:47.058Z,15.56
2022-10-01T02:03:03.621Z,15.51
2022-10-01T02:07:22.602Z,15.49
2022-10-01T02:11:49.145Z,15.28
2022-10-01T02:16:19.203Z,15.32
2022-10-01T02:20:46.048Z,15.47
2022-10-01T02:25:05.568Z,15.18
2022-10-01T02:29:22.765Z,15.50
2022-10-01T02:33:39.800Z,15.52
2022-10-01T02:37:56.822Z,15.68
2022-10-01T02:42:14.652Z,15.67
2022-10-01T02:46:33.474Z,15.65
2022-10-01T02:50:52.411Z,15.51
2022-10-01T02:55:14.881Z,15.59
2022-10-01T02:59:30.893Z,15.20
2022-10-01T03:03:46.925Z,15.50
2022-10-01T03:08:03.312Z,15.65
2022-10-01T03:12:19.474Z,15.53
2022-10-01T03:16:35.641Z,15.76
2022-10-01T03:20:51.640Z,15.65
2022-10-01T03:25:08.092Z,15.45
2022-10-01T03:29:25.257Z,15.73
2022-10-01T03:33:41.359Z,15.51
2022-10-01T03:37:57.458Z,15.64
2022-10-01T03:42:13.511Z,15.73
2022-10-01T03:46:29.759Z,15.69
2022-10-01T03:50:59.773Z,15.65
2022-10-01T03:55:15.949Z,15.69
2022-10-01T03:59:32.065Z,15.45
2022-10-01T04:03:49.320Z,15.54
2022-10-01T04:08:05.583Z,15.95
2022-10-01T04:12:21.687Z,15.94
2022-10-01T04:16:37.755Z,15.86
2022-10-01T04:20:53.849Z,15.90
2022-10-01T04:25:11.070Z,15.96
2022-10-01T04:29:27.165Z,15.94
2022-10-01T04:33:43.269Z,16.08
2022-10-01T04:38:08.012Z,16.00
2022-10-01T04:42:24.128Z,15.96
2022-10-01T04:46:40.179Z,15.87
2022-10-01T04:50:56.258Z,15.82
2022-10-01T04:55:12.761Z,15.92
2022-10-01T04:59:28.828Z,15.94
2022-10-01T05:03:44.956Z,15.86
2022-10-01T05:08:01.356Z,15.95
2022-10-01T05:12:20.113Z,16.00
2022-10-01T05:16:39.832Z,16.03
2022-10-01T05:20:55.911Z,15.99
2022-10-01T05:25:12.042Z,15.64
2022-10-01T05:29:28.189Z,15.90
2022-10-01T05:33:44.230Z,15.73
2022-10-01T05:38:02.866Z,15.67
2022-10-01T05:42:19.008Z,15.71
2022-10-01T05:46:35.655Z,15.53
2022-10-01T05:50:51.978Z,15.67
2022-10-01T05:55:08.609Z,15.69
2022-10-01T05:59:28.451Z,15.65
2022-10-01T06:03:50.889Z,15.81
2022-10-01T06:08:08.677Z,15.57
2022-10-01T06:12:25.408Z,15.81
2022-10-01T06:16:41.471Z,15.42
2022-10-01T06:20:59.856Z,15.53
2022-10-01T06:25:15.939Z,15.98
2022-10-01T06:29:31.967Z,15.91
2022-10-01T06:33:48.129Z,16.28
2022-10-01T06:38:04.851Z,16.60
2022-10-01T06:42:20.969Z,16.44
2022-10-01T06:46:37.472Z,16.56
2022-10-01T06:50:55.750Z,16.62
2022-10-01T06:55:16.310Z,16.74
2022-10-01T06:59:33.946Z,16.43
2022-10-01T07:03:50.700Z,16.73
2022-10-01T07:08:07.485Z,16.81
2022-10-01T07:12:23.691Z,16.93
2022-10-01T07:16:39.959Z,16.89
2022-10-01T07:20:58.051Z,16.66
2022-10-01T07:25:15.095Z,16.61
2022-10-01T07:29:31.769Z,16.88
2022-10-01T07:33:48.458Z,16.78
2022-10-01T07:38:08.279Z,16.80
2022-10-01T07:42:24.301Z,16.39
2022-10-01T07:46:40.581Z,16.59
2022-10-01T07:50:58.001Z,16.83
2022-10-01T07:55:14.825Z,17.06
2022-10-01T07:59:31.456Z,16.99
2022-10-01T08:03:49.888Z,16.86
2022-10-01T08:08:09.093Z,16.84
2022-10-01T08:12:30.498Z,16.99
2022-10-01T08:16:47.417Z,16.96
2022-10-01T08:21:04.460Z,16.92
2022-10-01T08:25:20.635Z,16.75
2022-10-01T08:29:36.764Z,16.89
2022-10-01T08:33:53.010Z,17.19
2022-10-01T08:38:10.052Z,17.13
2022-10-01T08:43:03.320Z,17.18
2022-10-01T08:47:35.080Z,16.89
2022-10-01T08:52:03.733Z,17.32
2022-10-01T08:56:32.166Z,17.45
2022-10-01T09:00:49.565Z,17.51
2022-10-01T09:05:19.367Z,17.72
2022-10-01T09:09:47.997Z,17.81
2022-10-01T09:14:33.666Z,18.11
2022-10-01T09:18:55.629Z,18.33
2022-10-01T09:23:24.355Z,18.66
2022-10-01T09:27:41.031Z,18.84
2022-10-01T09:31:57.446Z,19.27
2022-10-01T09:36:33.540Z,19.72
2022-10-01T09:40:55.666Z,20.31
2022-10-01T09:45:15.829Z,20.53
2022-10-01T09:49:35.487Z,20.77
2022-10-01T09:54:14.348Z,20.73
2022-10-01T09:58:31.346Z,21.43
2022-10-01T10:02:52.364Z,21.42
2022-10-01T10:07:08.578Z,21.19
2022-10-01T10:11:34.349Z,21.24
2022-10-01T10:15:52.868Z,20.95
2022-10-01T10:20:21.308Z,20.82
2022-10-01T10:24:37.623Z,20.77
2022-10-01T10:28:53.864Z,21.20
2022-10-01T10:33:14.368Z,21.53
2022-10-01T10:37:34.578Z,21.45
2022-10-01T10:41:52.163Z,21.87
2022-10-01T10:46:09.862Z,21.68
2022-10-01T10:50:31.331Z,21.34
2022-10-01T10:54:54.702Z,21.04
2022-10-01T10:59:12.564Z,21.19
2022-10-01T11:03:31.351Z,20.85
2022-10-01T11:07:49.485Z,20.70
2022-10-01T11:12:35.558Z,20.33
2022-10-01T11:17:25.286Z,20.81
2022-10-01T11:21:50.401Z,20.76
2022-10-01T11:26:41.784Z,20.35
2022-10-01T11:31:37.199Z,19.71
2022-10-01T11:36:29.403Z,19.83
2022-10-01T11:40:54.404Z,20.27
2022-10-01T11:45:21.588Z,19.99
2022-10-01T11:49:50.839Z,19.79
2022-10-01T11:54:11.944Z,19.88
2022-10-01T11:59:03.168Z,19.59
2022-10-01T12:03:21.652Z,19.59
2022-10-01T12:07:40.510Z,19.64
2022-10-01T12:12:10.271Z,19.67
2022-10-01T12:16:39.185Z,19.75
2022-10-01T12:20:57.756Z,19.87
2022-10-01T12:25:14.433Z,19.70
2022-10-01T12:30:06.953Z,19.73
2022-10-01T12:34:37.079Z,19.34
2022-10-01T12:39:08.853Z,19.63
2022-10-01T12:43:50.857Z,19.82
2022-10-01T12:48:22.626Z,19.50
2022-10-01T12:53:18.475Z,19.25
2022-10-01T12:57:54.020Z,19.19
2022-10-01T13:02:34.477Z,18.61
2022-10-01T13:07:23.393Z,18.77
2022-10-01T13:12:03.351Z,18.39
2022-10-01T13:16:44.745Z,17.63
2022-10-01T13:21:27.294Z,17.95
2022-10-01T13:26:01.818Z,17.94
2022-10-01T13:30:25.647Z,18.08
2022-10-01T13:34:46.352Z,18.25
2022-10-01T13:39:04.261Z,18.24
2022-10-01T13:43:24.397Z,17.79
2022-10-01T13:47:41.347Z,18.32
2022-10-01T13:51:58.465Z,18.02
2022-10-01T13:56:28.495Z,17.61
2022-10-01T14:00:54.242Z,17.75
2022-10-01T14:05:43.319Z,18.02
2022-10-01T14:10:01.021Z,16.92
2022-10-01T14:14:43.260Z,17.15
2022-10-01T14:18:59.366Z,17.02
2022-10-01T14:23:21.652Z,16.79
2022-10-01T14:27:40.792Z,17.52
2022-10-01T14:32:37.073Z,17.25
2022-10-01T14:36:54.627Z,17.33
2022-10-01T14:41:23.690Z,17.51
2022-10-01T14:46:00.737Z,17.03
2022-10-01T14:50:20.926Z,16.36
2022-10-01T14:54:58.733Z,16.74
2022-10-01T14:59:32.435Z,16.89
2022-10-01T15:03:49.787Z,16.87
2022-10-01T15:08:24.424Z,16.55
2022-10-01T15:12:41.767Z,16.96
2022-10-01T15:17:02.203Z,16.63
2022-10-01T15:21:40.280Z,16.72
2022-10-01T15:25:58.348Z,16.42
2022-10-01T15:30:18.532Z,16.56
2022-10-01T15:34:35.325Z,16.36
2022-10-01T15:38:51.784Z,16.34
2022-10-01T15:43:28.503Z,16.43
2022-10-01T15:47:52.447Z,16.79
2022-10-01T15:52:33.742Z,16.94
2022-10-01T15:56:49.833Z,17.03
2022-10-01T16:01:22.162Z,17.00
2022-10-01T16:05:46.004Z,17.43
2022-10-01T16:10:28.298Z,17.00
2022-10-01T16:15:05.010Z,16.94
2022-10-01T16:19:31.543Z,16.89
2022-10-01T16:23:53.288Z,16.76
2022-10-01T16:28:25.097Z,16.58
2022-10-01T16:32:41.193Z,16.39
2022-10-01T16:36:58.048Z,16.42
2022-10-01T16:41:20.063Z,17.01
2022-10-01T16:45:39.024Z,16.67
2022-10-01T16:49:55.116Z,16.47
2022-10-01T16:54:26.743Z,16.37
2022-10-01T16:58:46.301Z,16.41
2022-10-01T17:03:02.817Z,16.09
2022-10-01T17:07:18.867Z,15.96
2022-10-01T17:11:35.926Z,16.21
2022-10-01T17:15:55.054Z,15.93
2022-10-01T17:20:11.361Z,15.96
2022-10-01T17:24:27.620Z,15.83
2022-10-01T17:28:43.880Z,15.71
2022-10-01T17:33:00.943Z,15.64
2022-10-01T17:37:17.176Z,15.73
2022-10-01T17:41:33.418Z,15.79
2022-10-01T17:45:57.370Z,15.68
2022-10-01T17:50:14.637Z,15.79
2022-10-01T17:54:30.781Z,15.72
2022-10-01T17:58:48.675Z,15.53
2022-10-01T18:03:04.991Z,15.57
2022-10-01T18:07:21.171Z,15.51
2022-10-01T18:11:38.525Z,15.31
2022-10-01T18:16:18.931Z,15.43
2022-10-01T18:20:40.778Z,15.37
2022-10-01T18:24:58.242Z,15.35
2022-10-01T18:29:32.669Z,15.06
2022-10-01T18:33:55.251Z,15.57
2022-10-01T18:38:29.486Z,15.35
2022-10-01T18:43:13.099Z,15.69
2022-10-01T18:48:07.596Z,15.49
2022-10-01T18:52:29.842Z,15.22
2022-10-01T18:57:00.598Z,15.29
2022-10-01T19:01:36.002Z,14.78
2022-10-01T19:06:10.019Z,15.20
2022-10-01T19:10:40.247Z,14.88
2022-10-01T19:15:14.285Z,15.33
2022-10-01T19:19:54.592Z,15.40
2022-10-01T19:24:29.241Z,15.21
2022-10-01T19:29:02.490Z,15.29
2022-10-01T19:33:20.591Z,15.45
2022-10-01T19:37:43.696Z,14.69
2022-10-01T19:42:27.086Z,15.07
2022-10-01T19:46:47.617Z,15.25
2022-10-01T19:51:12.516Z,15.17
2022-10-01T19:55:37.754Z,15.54
2022-10-01T20:00:04.620Z,15.18
2022-10-01T20:04:25.360Z,15.49
2022-10-01T20:09:10.968Z,15.36
2022-10-01T20:13:51.665Z,15.44
2022-10-01T20:18:27.659Z,15.38
2022-10-01T20:23:19.992Z,15.40
2022-10-01T20:27:56.789Z,15.37
2022-10-01T20:32:36.789Z,15.55
2022-10-01T20:37:14.495Z,15.27
2022-10-01T20:41:32.795Z,15.33
2022-10-01T20:45:51.621Z,15.19
2022-10-01T20:50:14.979Z,15.26
2022-10-01T20:54:38.807Z,15.27
2022-10-01T20:58:59.505Z,15.01
2022-10-01T21:03:41.904Z,14.92
2022-10-01T21:08:06.983Z,15.10
2022-10-01T21:12:29.261Z,14.89
2022-10-01T21:16:46.409Z,14.91
2022-10-01T21:21:02.727Z,14.60
2022-10-01T21:25:31.177Z,13.96
2022-10-01T21:30:05.162Z,14.70
2022-10-01T21:34:27.180Z,14.69
2022-10-01T21:39:15.727Z,14.53
2022-10-01T21:43:34.758Z,14.50
2022-10-01T21:47:50.894Z,14.14
2022-10-01T21:52:18.893Z,14.43
2022-10-01T21:56:41.107Z,14.49
2022-10-01T22:01:20.565Z,14.14
2022-10-01T22:05:46.205Z,14.19
2022-10-01T22:10:27.910Z,14.13
2022-10-01T22:14:45.246Z,13.81
2022-10-01T22:19:26.078Z,14.03
2022-10-01T22:23:48.030Z,13.60
2022-10-01T22:28:07.709Z,13.53
2022-10-01T22:32:26.126Z,13.62
2022-10-01T22:36:51.244Z,14.00
2022-10-01T22:41:27.579Z,13.74
2022-10-01T22:45:55.570Z,13.20
2022-10-01T22:50:17.558Z,12.67
2022-10-01T22:55:03.234Z,12.85
2022-10-01T22:59:35.581Z,12.43
2022-10-01T23:04:04.403Z,12.93
2022-10-01T23:08:34.795Z,12.73
2022-10-01T23:12:50.943Z,12.61
2022-10-01T23:17:30.188Z,12.64
2022-10-01T23:22:21.546Z,12.38
2022-10-01T23:26:43.521Z,12.01
2022-10-01T23:31:26.151Z,12.18
2022-10-01T23:35:46.510Z,12.11
2022-10-01T23:40:08.230Z,12.00
2022-10-01T23:44:29.457Z,12.15
2022-10-01T23:49:07.258Z,12.36
2022-10-01T23:53:54.983Z,12.65
2022-10-01T23:58:13.532Z,12.59
